Time;durP1;ratioP1;P1;durP2;ratioP2;P2;SDS_P1;SDS_P2;PMS_P1;PMS_P2;Temp;Humidity;BMP_temperature;BMP_pressure;BME280_temperature;BME280_humidity;BME280_pressure;Samples;Min_cycle;Max_cycle;Signal;HPM_P1;HPM_P2
2023/08/31 00:00:35;;;;;;;4.70;3.50;;;;;;;13.36;89.66;100602.97;3607169;39;20063;-65
2023/08/31 00:03:02;;;;;;;5.90;3.67;;;;;;;13.28;89.22;100599.13;3604231;39;20060;-65
2023/08/31 00:05:28;;;;;;;4.15;3.75;;;;;;;13.31;89.51;100604.31;3603161;39;20043;-65
2023/08/31 00:07:54;;;;;;;6.45;4.03;;;;;;;13.29;89.66;100611.63;3604614;39;20301;-65
2023/08/31 00:10:20;;;;;;;4.82;4.10;;;;;;;13.23;89.66;100608.41;3603675;39;20085;-67
2023/08/31 00:12:46;;;;;;;6.57;4.43;;;;;;;12.97;89.70;100564.53;3602531;39;20063;-65
2023/08/31 00:15:11;;;;;;;5.20;4.18;;;;;;;13.20;90.07;100608.66;3593611;39;20071;-65
2023/08/31 00:17:37;;;;;;;4.43;4.03;;;;;;;13.15;90.13;100600.03;3602368;39;20397;-66
2023/08/31 00:20:06;;;;;;;5.10;4.25;;;;;;;13.12;90.57;100611.06;3602265;39;20139;-66
2023/08/31 00:22:32;;;;;;;5.93;4.30;;;;;;;13.13;90.34;100617.31;3604377;39;20047;-66
2023/08/31 00:24:58;;;;;;;4.80;4.30;;;;;;;13.11;90.77;100603.94;3605862;39;20463;-65
2023/08/31 00:27:23;;;;;;;4.97;4.53;;;;;;;13.09;90.17;100602.34;3604095;39;20297;-65
2023/08/31 00:29:50;;;;;;;6.90;4.70;;;;;;;13.07;90.96;100607.00;3602771;39;20316;-65
2023/08/31 00:32:18;;;;;;;6.47;4.80;;;;;;;13.03;90.80;100606.34;3605339;39;20301;-65
2023/08/31 00:34:44;;;;;;;7.93;4.60;;;;;;;12.99;90.93;100605.72;3603804;39;20108;-65
2023/08/31 00:37:10;;;;;;;6.82;4.85;;;;;;;12.96;90.99;100605.97;3596862;39;20379;-66
2023/08/31 00:39:36;;;;;;;5.30;4.80;;;;;;;12.95;91.03;100615.03;3603993;39;20098;-66
2023/08/31 00:42:01;;;;;;;5.43;4.90;;;;;;;12.96;91.49;100607.81;3603460;39;20077;-66
2023/08/31 00:44:27;;;;;;;6.95;4.97;;;;;;;12.91;91.11;100597.38;3602555;39;20051;-66
2023/08/31 00:46:54;;;;;;;6.75;5.10;;;;;;;12.84;90.92;100588.00;3603172;39;20051;-66
2023/08/31 00:49:20;;;;;;;5.13;4.63;;;;;;;12.89;91.09;100614.66;3604015;39;20047;-65
2023/08/31 00:51:48;;;;;;;4.85;4.45;;;;;;;12.86;91.58;100609.47;3603828;39;20078;-66
2023/08/31 00:54:19;;;;;;;5.40;4.72;;;;;;;12.77;91.98;100600.22;3602576;39;20087;-66
2023/08/31 00:56:45;;;;;;;5.10;4.60;;;;;;;12.83;91.44;100601.63;3603322;39;20051;-65
2023/08/31 00:59:10;;;;;;;7.70;5.15;;;;;;;12.81;91.28;100607.09;3604401;39;21791;-65
2023/08/31 01:02:05;;;;;;;5.68;5.07;;;;;;;12.77;91.69;100606.47;3601425;39;20066;-65
2023/08/31 01:05:13;;;;;;;5.30;4.80;;;;;;;12.76;91.53;100599.38;3602261;39;20128;-65
2023/08/31 01:07:58;;;;;;;5.20;4.60;;;;;;;12.71;91.49;100598.84;3595399;39;20169;-66
2023/08/31 01:10:48;;;;;;;5.57;4.93;;;;;;;12.69;92.01;100598.13;3604863;39;20047;-66
2023/08/31 01:13:18;;;;;;;5.60;4.90;;;;;;;12.68;91.83;100599.06;3602795;39;20055;-65
2023/08/31 01:15:53;;;;;;;5.47;4.97;;;;;;;12.32;91.75;100536.13;3601546;39;20402;-66
2023/08/31 01:18:25;;;;;;;6.13;5.07;;;;;;;12.62;92.06;100599.53;3594478;39;20406;-66
2023/08/31 01:21:40;;;;;;;6.97;5.60;;;;;;;12.60;92.46;100596.09;3604894;39;20047;-65
2023/08/31 01:24:08;;;;;;;5.88;5.05;;;;;;;12.61;92.59;100595.13;3593541;39;20070;-64
2023/08/31 01:26:35;;;;;;;5.88;5.28;;;;;;;12.60;92.30;100593.41;3604815;39;20059;-64
2023/08/31 01:29:02;;;;;;;6.75;5.43;;;;;;;12.59;92.16;100599.78;3599693;39;20132;-65
2023/08/31 01:31:29;;;;;;;7.25;5.22;;;;;;;12.60;92.49;100604.19;3603952;39;20090;-65
2023/08/31 01:33:54;;;;;;;7.18;5.32;;;;;;;12.57;92.14;100598.16;3600455;39;20058;-65
2023/08/31 01:36:38;;;;;;;7.63;5.45;;;;;;;12.56;92.38;100602.72;3602387;39;20055;-66
2023/08/31 01:39:17;;;;;;;8.02;5.72;;;;;;;12.53;92.35;100606.47;3601833;39;20059;-64
2023/08/31 01:41:55;;;;;;;6.75;5.65;;;;;;;12.53;92.43;100613.72;3601739;39;20146;-66
2023/08/31 01:44:21;;;;;;;6.70;6.10;;;;;;;12.53;93.00;100613.72;3603546;39;20043;-65
2023/08/31 01:46:52;;;;;;;6.75;6.05;;;;;;;12.52;92.90;100601.19;3601876;39;20057;-65
2023/08/31 01:49:19;;;;;;;6.82;6.13;;;;;;;12.55;92.71;100614.44;3603891;39;20433;-65
2023/08/31 01:51:45;;;;;;;7.15;6.38;;;;;;;12.54;92.94;100623.53;3601580;39;20058;-64
2023/08/31 01:54:10;;;;;;;8.48;6.65;;;;;;;12.50;92.87;100612.09;3602371;39;20047;-65
2023/08/31 01:56:36;;;;;;;7.65;6.43;;;;;;;12.53;93.05;100616.41;3603641;39;20107;-65
2023/08/31 01:59:02;;;;;;;7.68;6.65;;;;;;;12.51;93.20;100608.41;3602970;39;21405;-64
2023/08/31 02:01:29;;;;;;;7.65;6.72;;;;;;;12.57;93.48;100615.19;3607425;39;20043;-65
2023/08/31 02:03:54;;;;;;;8.13;6.85;;;;;;;12.58;93.58;100616.06;3601579;39;20426;-66
2023/08/31 02:06:20;;;;;;;11.25;7.43;;;;;;;12.60;93.64;100614.13;3605239;39;20054;-64
2023/08/31 02:08:47;;;;;;;7.38;6.68;;;;;;;12.60;93.58;100614.97;3602933;39;20356;-66
2023/08/31 02:11:13;;;;;;;8.90;7.25;;;;;;;12.60;93.13;100611.44;3601270;39;20054;-65
2023/08/31 02:13:42;;;;;;;10.23;7.65;;;;;;;12.62;93.78;100621.09;3602980;39;20053;-65
2023/08/31 02:16:07;;;;;;;8.00;6.82;;;;;;;12.66;93.60;100625.31;3602795;39;20111;-65
2023/08/31 02:18:33;;;;;;;8.93;7.18;;;;;;;12.68;93.60;100628.75;3601802;39;20087;-65
2023/08/31 02:20:59;;;;;;;7.93;7.13;;;;;;;12.70;93.27;100621.41;3603889;39;20074;-65
2023/08/31 02:23:24;;;;;;;7.95;7.25;;;;;;;12.67;93.39;100615.38;3601816;39;20395;-65
2023/08/31 02:25:50;;;;;;;7.72;6.95;;;;;;;12.71;93.46;100627.66;3602429;39;20063;-66
2023/08/31 02:28:17;;;;;;;7.90;7.10;;;;;;;12.70;93.93;100626.81;3602269;39;20382;-65
2023/08/31 02:30:46;;;;;;;8.48;6.85;;;;;;;12.74;93.52;100622.03;3603129;39;20152;-66
2023/08/31 02:33:11;;;;;;;8.05;6.90;;;;;;;12.75;93.68;100615.69;3600363;39;20059;-66
2023/08/31 02:35:37;;;;;;;8.93;6.93;;;;;;;12.78;93.09;100620.81;3602944;39;20062;-65
2023/08/31 02:38:03;;;;;;;9.38;7.40;;;;;;;12.80;93.00;100620.72;3601113;39;20058;-65
2023/08/31 02:40:28;;;;;;;7.82;7.03;;;;;;;12.78;92.89;100623.53;3604778;39;20063;-65
2023/08/31 02:42:54;;;;;;;9.55;8.40;;;;;;;12.73;93.08;100625.72;3602812;39;20381;-66
2023/08/31 02:45:20;;;;;;;10.48;9.38;;;;;;;12.73;93.09;100628.41;3602019;39;20058;-65
2023/08/31 02:47:46;;;;;;;12.70;10.65;;;;;;;12.72;93.28;100630.25;3590880;39;20421;-66
2023/08/31 02:50:11;;;;;;;13.13;11.68;;;;;;;12.74;93.23;100624.72;3604508;39;20062;-66
2023/08/31 02:52:37;;;;;;;14.20;12.13;;;;;;;12.73;93.56;100623.88;3603941;39;20112;-65
2023/08/31 02:55:03;;;;;;;14.60;12.88;;;;;;;12.71;92.97;100622.25;3600986;39;20054;-66
2023/08/31 02:57:29;;;;;;;16.02;13.85;;;;;;;12.69;93.71;100625.09;3601316;39;20069;-67
2023/08/31 02:59:55;;;;;;;15.80;14.02;;;;;;;12.65;93.37;100620.88;3602394;39;20059;-65
2023/08/31 03:02:21;;;;;;;16.35;14.57;;;;;;;12.53;93.72;100602.94;3606523;39;20409;-65
2023/08/31 03:04:47;;;;;;;18.00;15.35;;;;;;;12.62;93.78;100618.41;3604922;39;20356;-65
2023/08/31 03:07:15;;;;;;;15.45;13.82;;;;;;;12.61;93.69;100624.78;3602470;39;20067;-66
2023/08/31 03:09:40;;;;;;;16.17;14.43;;;;;;;12.58;93.89;100622.31;3603047;39;20043;-65
2023/08/31 03:12:06;;;;;;;18.35;14.85;;;;;;;12.58;93.52;100625.00;3601457;39;20431;-64
2023/08/31 03:14:32;;;;;;;15.68;13.68;;;;;;;12.55;93.78;100625.22;3602616;39;20063;-66
2023/08/31 03:16:58;;;;;;;14.13;12.73;;;;;;;12.53;93.68;100627.19;3604058;39;20063;-65
2023/08/31 03:19:23;;;;;;;13.82;12.20;;;;;;;12.49;93.24;100628.38;3600864;39;20055;-65
2023/08/31 03:21:50;;;;;;;13.13;11.55;;;;;;;12.47;94.03;100627.66;3602013;39;20314;-64
2023/08/31 03:24:15;;;;;;;12.70;11.30;;;;;;;12.46;94.05;100634.00;3605021;39;20035;-65
2023/08/31 03:26:41;;;;;;;13.88;11.43;;;;;;;12.44;94.11;100630.56;3601238;39;20071;-65
2023/08/31 03:29:06;;;;;;;12.93;11.02;;;;;;;12.44;93.69;100630.56;3603702;39;20051;-65
2023/08/31 03:31:32;;;;;;;13.15;11.85;;;;;;;12.42;93.63;100633.34;3602001;39;20412;-65
2023/08/31 03:33:58;;;;;;;12.98;11.57;;;;;;;12.39;94.14;100632.72;3603404;39;20555;-65
2023/08/31 03:36:23;;;;;;;14.73;12.35;;;;;;;12.38;94.52;100626.47;3605852;39;20087;-65
2023/08/31 03:38:49;;;;;;;14.00;12.50;;;;;;;12.41;94.34;100633.47;3602696;39;20047;-64
2023/08/31 03:41:15;;;;;;;15.23;12.30;;;;;;;12.40;94.19;100629.94;3604497;39;20051;-65
2023/08/31 03:43:41;;;;;;;15.63;14.02;;;;;;;12.42;94.53;100632.50;3602589;39;20051;-65
2023/08/31 03:46:06;;;;;;;15.85;14.13;;;;;;;12.43;94.39;100620.72;3597430;39;20067;-65
2023/08/31 03:48:32;;;;;;;18.17;14.55;;;;;;;12.43;94.35;100627.00;3603638;39;20058;-66
2023/08/31 03:50:58;;;;;;;17.70;15.27;;;;;;;12.42;94.42;100621.72;3603273;39;20066;-66
2023/08/31 03:53:23;;;;;;;18.33;16.23;;;;;;;12.42;94.99;100616.31;3603054;39;20100;-65
2023/08/31 03:55:49;;;;;;;20.13;17.27;;;;;;;12.35;94.37;100604.28;3597724;39;20406;-65
2023/08/31 03:58:15;;;;;;;19.60;17.50;;;;;;;12.22;94.66;100589.00;3603594;39;20059;-65
2023/08/31 04:00:41;;;;;;;19.85;17.65;;;;;;;12.37;95.07;100619.38;3605347;39;20118;-65
2023/08/31 04:03:08;;;;;;;21.02;18.30;;;;;;;12.36;95.12;100616.75;3603010;39;20108;-65
2023/08/31 04:05:34;;;;;;;22.65;18.52;;;;;;;12.30;95.26;100612.66;3602972;39;20054;-65
2023/08/31 04:08:01;;;;;;;20.80;17.75;;;;;;;12.35;95.31;100625.84;3604904;39;20103;-66
2023/08/31 04:10:27;;;;;;;20.02;17.85;;;;;;;12.31;95.07;100620.66;3603924;39;20047;-65
2023/08/31 04:12:53;;;;;;;19.20;16.77;;;;;;;12.30;95.86;100631.53;3604683;39;20051;-64
2023/08/31 04:15:18;;;;;;;17.67;15.80;;;;;;;12.28;95.70;100631.66;3604217;39;20124;-66
2023/08/31 04:17:44;;;;;;;18.00;16.02;;;;;;;12.29;95.51;100632.53;3607149;39;20057;-66
2023/08/31 04:20:11;;;;;;;18.33;15.57;;;;;;;12.28;95.78;100642.44;3602737;39;20381;-64
2023/08/31 04:22:36;;;;;;;22.45;16.48;;;;;;;12.28;96.21;100642.44;3608194;39;20299;-64
2023/08/31 04:25:03;;;;;;;16.80;15.10;;;;;;;12.28;95.81;100642.44;3604013;39;20131;-64
2023/08/31 04:27:31;;;;;;;16.92;14.55;;;;;;;12.27;96.11;100646.13;3603664;39;20431;-64
2023/08/31 04:29:58;;;;;;;16.95;13.23;;;;;;;12.28;95.74;100649.69;3606453;39;20115;-65
2023/08/31 04:32:25;;;;;;;14.60;13.05;;;;;;;12.29;95.74;100640.59;3605507;39;20106;-64
2023/08/31 04:34:51;;;;;;;16.00;12.30;;;;;;;12.29;96.19;100646.84;3605549;39;20402;-64
2023/08/31 04:37:17;;;;;;;13.30;11.75;;;;;;;12.27;95.16;100650.63;3605733;39;20047;-65
2023/08/31 04:39:43;;;;;;;13.95;12.10;;;;;;;12.28;95.87;100646.97;3603794;39;20463;-64
2023/08/31 04:42:09;;;;;;;12.43;11.13;;;;;;;12.28;95.54;100650.53;3608792;39;20178;-65
2023/08/31 04:44:35;;;;;;;10.82;9.82;;;;;;;12.24;95.34;100651.72;3606354;39;20070;-64
2023/08/31 04:47:01;;;;;;;10.40;9.38;;;;;;;12.20;95.78;100652.91;3603872;39;20099;-65
2023/08/31 04:49:27;;;;;;;11.07;9.43;;;;;;;12.28;95.67;100658.63;3604482;39;20054;-64
2023/08/31 04:51:53;;;;;;;11.75;9.00;;;;;;;12.28;95.22;100664.00;3605578;39;20067;-65
2023/08/31 04:54:18;;;;;;;11.52;9.63;;;;;;;12.29;95.21;100662.16;3604846;39;20059;-66
2023/08/31 04:56:44;;;;;;;10.93;8.50;;;;;;;12.26;94.90;100655.16;3605720;39;20339;-66
2023/08/31 04:59:10;;;;;;;10.68;8.13;;;;;;;12.31;94.96;100668.31;3604453;39;20059;-65
2023/08/31 05:01:36;;;;;;;9.20;8.27;;;;;;;12.29;95.23;100663.03;3602584;39;20275;-65
2023/08/31 05:04:03;;;;;;;10.07;8.05;;;;;;;12.14;94.84;100636.31;3603328;39;20097;-67
2023/08/31 05:06:29;;;;;;;10.18;7.50;;;;;;;12.24;94.86;100643.66;3604387;39;20389;-65
2023/08/31 05:08:55;;;;;;;9.63;7.28;;;;;;;12.38;94.26;100674.13;3602738;39;20066;-65
2023/08/31 05:11:20;;;;;;;10.15;7.63;;;;;;;12.36;94.30;100670.69;3605115;39;20318;-66
2023/08/31 05:13:48;;;;;;;8.63;6.93;;;;;;;12.34;94.72;100667.22;3604460;39;20063;-66
2023/08/31 05:16:14;;;;;;;11.63;7.40;;;;;;;12.40;93.95;100678.44;3604320;39;20051;-65
2023/08/31 05:18:42;;;;;;;7.28;6.43;;;;;;;12.41;94.08;100685.56;3606366;39;20069;-66
2023/08/31 05:21:08;;;;;;;7.50;6.65;;;;;;;12.40;94.13;100689.22;3606747;39;20081;-66
2023/08/31 05:23:34;;;;;;;9.65;6.85;;;;;;;12.36;94.28;100682.31;3606666;39;20327;-65
2023/08/31 05:26:01;;;;;;;7.15;6.45;;;;;;;12.42;94.41;100695.34;3605911;39;20059;-67
2023/08/31 05:28:27;;;;;;;6.95;6.35;;;;;;;12.43;93.82;100701.59;3605714;39;20059;-67
2023/08/31 05:30:57;;;;;;;8.13;6.35;;;;;;;12.40;94.16;100696.44;3606263;39;20143;-65
2023/08/31 05:33:25;;;;;;;7.80;6.40;;;;;;;12.49;94.33;100703.88;3605417;39;20113;-66
2023/08/31 05:35:51;;;;;;;7.97;6.38;;;;;;;12.51;93.59;100704.63;3604093;39;20184;-69
2023/08/31 05:38:17;;;;;;;7.55;5.93;;;;;;;12.51;93.53;100708.19;3603789;39;20051;-65
2023/08/31 05:40:48;;;;;;;7.10;6.05;;;;;;;12.53;93.44;100710.78;3605714;39;20096;-65
2023/08/31 05:43:14;;;;;;;7.70;6.43;;;;;;;12.54;93.88;100723.28;3602493;39;20043;-66
2023/08/31 05:45:39;;;;;;;7.40;6.03;;;;;;;12.42;93.93;100695.34;3610201;39;20074;-65
2023/08/31 05:48:05;;;;;;;7.55;5.65;;;;;;;12.58;93.69;100718.53;3601674;39;20078;-65
2023/08/31 05:50:31;;;;;;;7.40;6.05;;;;;;;12.55;93.86;100714.22;3606348;39;20091;-65
2023/08/31 05:52:57;;;;;;;8.40;6.38;;;;;;;12.60;93.74;100720.16;3603356;39;20058;-66
2023/08/31 05:55:22;;;;;;;7.35;6.13;;;;;;;12.64;93.97;100718.94;3603550;39;20812;-66
2023/08/31 05:57:49;;;;;;;7.13;5.70;;;;;;;12.67;94.37;100724.13;3603667;39;20058;-66
2023/08/31 06:00:16;;;;;;;8.23;6.03;;;;;;;12.68;94.34;100717.75;3605723;39;20055;-66
2023/08/31 06:02:44;;;;;;;8.95;6.30;;;;;;;12.73;94.23;100718.28;3609549;39;20266;-67
2023/08/31 06:05:12;;;;;;;6.65;5.95;;;;;;;12.77;94.70;100729.69;3607039;39;20398;-66
2023/08/31 06:07:39;;;;;;;8.82;6.00;;;;;;;12.81;94.71;100730.34;3604879;39;20047;-66
2023/08/31 06:10:06;;;;;;;6.72;6.03;;;;;;;12.84;94.68;100727.41;3604804;39;20159;-66
2023/08/31 06:12:31;;;;;;;7.55;6.18;;;;;;;12.86;94.82;100723.63;3607710;39;20063;-65
2023/08/31 06:14:58;;;;;;;10.05;6.88;;;;;;;12.91;94.75;100728.72;3607147;39;20089;-66
2023/08/31 06:17:24;;;;;;;7.97;5.90;;;;;;;12.97;95.00;100730.94;3606402;39;20055;-65
2023/08/31 06:19:49;;;;;;;7.22;6.22;;;;;;;13.02;95.23;100734.16;3608753;39;20062;-65
2023/08/31 06:22:15;;;;;;;8.13;6.50;;;;;;;13.07;94.99;100731.16;3607290;39;20066;-65
2023/08/31 06:24:42;;;;;;;9.63;6.50;;;;;;;13.12;95.20;100735.22;3605944;39;20047;-66
2023/08/31 06:27:07;;;;;;;6.75;6.10;;;;;;;13.17;95.12;100742.97;3605749;39;20055;-66
2023/08/31 06:29:33;;;;;;;7.13;6.07;;;;;;;13.23;95.27;100742.53;3605338;39;20043;-66
2023/08/31 06:31:59;;;;;;;7.40;6.13;;;;;;;13.30;95.19;100748.38;3606800;39;20334;-66
2023/08/31 06:34:24;;;;;;;7.95;5.93;;;;;;;13.37;94.84;100749.63;3604928;39;20066;-65
2023/08/31 06:36:50;;;;;;;7.22;6.53;;;;;;;13.35;94.99;100735.38;3608199;39;20042;-65
2023/08/31 06:39:16;;;;;;;9.35;6.22;;;;;;;13.47;94.37;100750.66;3602120;39;20055;-66
2023/08/31 06:41:41;;;;;;;7.75;6.03;;;;;;;13.55;94.80;100756.34;3604029;39;20055;-66
2023/08/31 06:44:07;;;;;;;9.27;5.97;;;;;;;13.62;94.16;100754.03;3602930;39;20438;-65
2023/08/31 06:46:37;;;;;;;10.45;6.50;;;;;;;13.68;94.01;100757.13;3604746;39;20078;-65
2023/08/31 06:49:04;;;;;;;8.18;6.22;;;;;;;13.84;94.10;100755.97;3605592;39;20058;-65
2023/08/31 06:51:34;;;;;;;9.32;6.80;;;;;;;13.93;94.14;100763.38;3604370;39;20091;-66
2023/08/31 06:54:05;;;;;;;7.55;5.65;;;;;;;14.03;93.54;100764.38;3601388;39;20047;-66
2023/08/31 06:56:35;;;;;;;8.23;6.13;;;;;;;14.15;92.83;100763.44;3606754;39;20391;-66
2023/08/31 06:59:02;;;;;;;11.20;6.55;;;;;;;13.99;92.58;100724.22;3602982;39;20120;-65
2023/08/31 07:01:29;;;;;;;8.98;6.53;;;;;;;14.38;92.24;100769.72;3604445;39;20047;-66
2023/08/31 07:03:55;;;;;;;7.50;6.03;;;;;;;14.29;92.40;100731.75;3602199;39;20275;-65
2023/08/31 07:06:21;;;;;;;8.52;5.82;;;;;;;14.64;91.80;100772.25;3604411;39;20415;-66
2023/08/31 07:08:47;;;;;;;7.72;5.63;;;;;;;14.77;91.19;100769.41;3603724;39;20051;-66
2023/08/31 07:11:14;;;;;;;8.48;5.90;;;;;;;14.82;90.16;100767.22;3604128;39;20120;-67
2023/08/31 07:13:41;;;;;;;9.88;5.88;;;;;;;15.03;89.51;100773.59;3606841;39;20130;-66
2023/08/31 07:16:07;;;;;;;8.32;5.30;;;;;;;15.19;90.10;100773.22;3602814;39;20487;-67
2023/08/31 07:18:33;;;;;;;11.15;5.70;;;;;;;15.38;89.82;100777.97;3603301;39;20376;-66
2023/08/31 07:20:58;;;;;;;10.07;5.60;;;;;;;15.56;88.86;100780.97;3602350;39;20913;-67
2023/08/31 07:23:24;;;;;;;10.80;5.20;;;;;;;15.70;87.44;100779.88;3594137;39;20089;-66
2023/08/31 07:25:50;;;;;;;7.25;5.30;;;;;;;15.82;86.18;100780.66;3604743;39;20293;-66
2023/08/31 07:28:15;;;;;;;7.88;5.43;;;;;;;15.96;85.00;100786.66;3598610;39;20087;-66
2023/08/31 07:30:41;;;;;;;8.57;5.40;;;;;;;16.10;84.72;100784.59;3609484;39;20061;-66
2023/08/31 07:33:07;;;;;;;7.18;5.22;;;;;;;16.22;83.60;100780.84;3602849;39;20341;-66
2023/08/31 07:35:33;;;;;;;6.57;4.93;;;;;;;16.36;83.03;100783.19;3605805;39;20693;-66
2023/08/31 07:37:59;;;;;;;5.78;4.72;;;;;;;16.52;83.17;100776.44;3602709;39;20063;-66
2023/08/31 07:40:25;;;;;;;8.82;5.10;;;;;;;16.63;82.33;100779.94;3604369;39;20091;-66
2023/08/31 07:42:51;;;;;;;6.80;4.80;;;;;;;16.81;80.77;100790.19;3604360;39;20347;-66
2023/08/31 07:45:17;;;;;;;8.90;4.85;;;;;;;16.87;79.99;100793.25;3606965;39;20370;-66
2023/08/31 07:47:44;;;;;;;7.50;4.68;;;;;;;17.02;80.12;100796.44;3604075;39;20412;-66
2023/08/31 07:50:10;;;;;;;7.68;4.57;;;;;;;17.13;79.48;100799.06;3603186;39;20055;-66
2023/08/31 07:52:37;;;;;;;6.03;4.90;;;;;;;17.24;78.15;100799.94;3601274;39;20059;-66
2023/08/31 07:55:03;;;;;;;7.15;4.57;;;;;;;17.34;78.45;100792.66;3602953;39;20385;-66
2023/08/31 07:57:29;;;;;;;10.13;4.63;;;;;;;17.50;77.74;100794.84;3603877;39;20047;-65
2023/08/31 07:59:54;;;;;;;7.75;4.60;;;;;;;17.51;76.77;100792.00;3603259;39;20058;-66
2023/08/31 08:02:20;;;;;;;6.82;4.35;;;;;;;17.58;75.85;100786.84;3604148;39;20825;-66
2023/08/31 08:04:46;;;;;;;8.98;4.85;;;;;;;17.73;77.13;100795.44;3602155;39;20397;-66
2023/08/31 08:07:12;;;;;;;6.20;4.63;;;;;;;17.75;76.01;100793.44;3601675;39;20055;-66
2023/08/31 08:09:37;;;;;;;8.20;4.60;;;;;;;17.96;75.94;100804.22;3603197;39;20062;-67
2023/08/31 08:12:03;;;;;;;6.28;4.28;;;;;;;18.15;76.13;100814.25;3605227;39;20055;-65
2023/08/31 08:14:29;;;;;;;4.97;4.30;;;;;;;18.21;74.20;100806.34;3606152;39;20062;-66
2023/08/31 08:16:55;;;;;;;9.25;4.45;;;;;;;18.35;74.92;100804.19;3604089;39;20120;-66
2023/08/31 08:19:24;;;;;;;5.55;4.22;;;;;;;18.48;74.41;100808.31;3604830;39;20082;-66
2023/08/31 08:21:52;;;;;;;5.82;4.50;;;;;;;18.63;74.32;100811.44;3607438;39;20047;-66
2023/08/31 08:24:19;;;;;;;5.45;4.07;;;;;;;18.78;73.46;100809.13;3606460;39;20398;-68
2023/08/31 08:26:44;;;;;;;8.63;4.43;;;;;;;18.92;72.72;100819.53;3604871;39;20125;-66
2023/08/31 08:29:10;;;;;;;8.25;4.57;;;;;;;18.86;72.16;100779.28;3607314;39;20360;-67
2023/08/31 08:31:36;;;;;;;5.88;4.20;;;;;;;19.16;72.10;100807.25;3609958;39;20051;-66
2023/08/31 08:34:03;;;;;;;6.10;4.22;;;;;;;19.25;70.82;100812.66;3608238;39;20207;-65
2023/08/31 08:36:29;;;;;;;7.75;4.47;;;;;;;19.40;70.81;100817.59;3605271;39;20066;-66
2023/08/31 08:38:54;;;;;;;6.75;4.07;;;;;;;19.33;71.03;100789.22;3604297;39;20112;-66
2023/08/31 08:41:24;;;;;;;7.20;4.72;;;;;;;19.64;70.70;100823.34;3603233;39;20055;-67
2023/08/31 08:43:51;;;;;;;5.97;4.60;;;;;;;19.69;68.49;100821.03;3604529;39;20059;-65
2023/08/31 08:46:17;;;;;;;8.68;4.88;;;;;;;19.74;68.23;100830.63;3605056;39;20055;-67
2023/08/31 08:48:46;;;;;;;6.82;4.68;;;;;;;19.89;69.26;100832.66;3603153;39;20051;-66
2023/08/31 08:51:13;;;;;;;7.95;4.70;;;;;;;20.05;67.60;100823.78;3604637;39;20054;-66
2023/08/31 08:53:43;;;;;;;8.93;4.40;;;;;;;20.24;68.33;100832.81;3602609;39;20043;-66
2023/08/31 08:56:09;;;;;;;6.45;4.03;;;;;;;20.26;66.71;100838.94;3607592;39;20096;-67
2023/08/31 08:58:35;;;;;;;6.10;3.85;;;;;;;20.12;66.39;100833.03;3602332;39;20055;-65
2023/08/31 09:01:03;;;;;;;7.63;4.25;;;;;;;20.03;66.33;100844.03;3605460;39;20067;-65
2023/08/31 09:03:29;;;;;;;8.55;4.40;;;;;;;19.83;67.14;100846.06;3604589;39;20067;-64
2023/08/31 09:05:55;;;;;;;6.88;3.78;;;;;;;19.77;67.79;100843.94;3605336;39;20061;-65
2023/08/31 09:08:28;;;;;;;5.45;3.95;;;;;;;19.61;68.02;100804.53;3603243;39;20075;-65
2023/08/31 09:10:58;;;;;;;7.97;3.53;;;;;;;20.04;68.47;100841.13;3609043;39;20368;-65
2023/08/31 09:13:29;;;;;;;6.10;3.67;;;;;;;20.31;67.08;100839.34;3608616;39;20051;-65
2023/08/31 09:15:58;;;;;;;6.90;3.75;;;;;;;20.38;65.06;100811.25;3610029;39;20050;-67
2023/08/31 09:18:32;;;;;;;3.72;3.17;;;;;;;20.58;64.70;100832.91;3603892;39;20050;-64
2023/08/31 09:21:00;;;;;;;6.15;3.50;;;;;;;20.73;63.87;100838.66;3605548;39;20342;-66
2023/08/31 09:23:26;;;;;;;4.18;3.05;;;;;;;20.92;64.16;100838.44;3603253;39;20066;-66
2023/08/31 09:25:54;;;;;;;5.40;3.50;;;;;;;21.09;63.19;100851.19;3606149;39;20055;-65
2023/08/31 09:28:26;;;;;;;4.13;3.10;;;;;;;21.21;62.56;100835.34;3606674;39;20088;-65
2023/08/31 09:30:53;;;;;;;6.43;2.90;;;;;;;21.18;63.20;100851.22;3607191;39;20055;-64
2023/08/31 09:33:20;;;;;;;5.50;2.97;;;;;;;20.97;61.39;100855.22;3592405;39;20046;-65
2023/08/31 09:35:59;;;;;;;6.55;3.20;;;;;;;20.81;62.43;100850.50;3606756;39;20397;-65
2023/08/31 09:38:25;;;;;;;5.60;2.97;;;;;;;20.73;62.29;100846.88;3602114;39;20056;-64
2023/08/31 09:40:51;;;;;;;8.02;3.13;;;;;;;20.79;63.44;100852.53;3607199;39;20065;-64
2023/08/31 09:43:22;;;;;;;6.55;3.10;;;;;;;20.91;62.25;100857.75;3604738;39;20085;-65
2023/08/31 09:45:50;;;;;;;4.72;3.15;;;;;;;21.13;62.14;100849.00;3607855;39;20055;-65
2023/08/31 09:48:17;;;;;;;8.95;3.30;;;;;;;21.45;61.07;100845.56;3602746;39;20052;-64
2023/08/31 09:50:47;;;;;;;5.05;2.88;;;;;;;21.59;59.06;100856.91;3604458;39;20044;-65
2023/08/31 09:53:16;;;;;;;5.63;2.90;;;;;;;21.64;57.60;100855.38;3605521;39;20055;-65
2023/08/31 09:55:44;;;;;;;4.60;2.60;;;;;;;21.76;56.58;100856.78;3606218;39;20047;-64
2023/08/31 09:58:10;;;;;;;3.47;2.30;;;;;;;21.59;56.95;100860.47;3604235;39;20376;-64
2023/08/31 10:00:37;;;;;;;3.25;2.22;;;;;;;21.54;57.02;100863.72;3593390;39;20047;-64
2023/08/31 10:03:05;;;;;;;6.30;2.80;;;;;;;21.44;57.46;100860.28;3605163;39;20381;-65
2023/08/31 10:05:32;;;;;;;6.35;2.67;;;;;;;21.59;58.32;100855.00;3602952;39;20063;-64
2023/08/31 10:07:59;;;;;;;4.43;2.40;;;;;;;21.92;57.35;100864.19;3605745;39;20058;-64
2023/08/31 10:10:29;;;;;;;6.35;2.42;;;;;;;21.83;54.86;100867.91;3604954;39;20372;-63
2023/08/31 10:12:57;;;;;;;4.50;2.38;;;;;;;21.63;55.45;100839.13;3606694;39;20047;-65
2023/08/31 10:15:33;;;;;;;5.75;2.30;;;;;;;21.89;54.91;100859.03;3600954;39;20317;-65
2023/08/31 10:18:00;;;;;;;5.55;2.10;;;;;;;22.12;54.75;100852.91;3604323;39;21977;-63
2023/08/31 10:20:31;;;;;;;4.25;1.98;;;;;;;22.50;55.71;100858.78;3604481;39;20050;-64
2023/08/31 10:23:07;;;;;;;3.90;2.28;;;;;;;22.52;54.39;100829.31;3604773;39;20043;-64
2023/08/31 10:25:45;;;;;;;4.72;2.10;;;;;;;22.93;53.80;100854.81;3605391;39;20063;-64
2023/08/31 10:28:25;;;;;;;3.75;1.70;;;;;;;22.87;50.98;100861.81;3603057;39;20280;-64
2023/08/31 10:31:17;;;;;;;2.78;1.83;;;;;;;22.53;50.29;100863.94;3602663;39;20409;-63
2023/08/31 10:33:54;;;;;;;4.43;2.50;;;;;;;22.20;50.36;100855.69;3605414;39;20063;-65
2023/08/31 10:36:20;;;;;;;4.32;2.20;;;;;;;22.29;51.01;100862.88;3601960;39;20098;-64
2023/08/31 10:39:17;;;;;;;2.75;1.75;;;;;;;22.16;50.31;100851.56;3602566;39;20063;-65
2023/08/31 10:41:53;;;;;;;3.60;2.10;;;;;;;21.78;50.01;100821.88;3599006;39;20059;-64
2023/08/31 10:44:25;;;;;;;3.75;1.88;;;;;;;21.94;51.33;100836.63;3602212;39;20389;-65
2023/08/31 10:46:52;;;;;;;3.78;2.13;;;;;;;21.94;51.54;100842.09;3602508;39;20050;-64
2023/08/31 10:49:23;;;;;;;5.43;2.13;;;;;;;22.15;52.52;100839.75;3602846;39;21552;-65
2023/08/31 10:51:56;;;;;;;6.03;1.98;;;;;;;22.50;50.54;100831.38;3603622;39;20050;-64
2023/08/31 10:54:30;;;;;;;4.15;1.70;;;;;;;22.89;51.02;100821.38;3601474;39;20097;-65
2023/08/31 10:57:08;;;;;;;4.95;1.70;;;;;;;23.09;48.58;100819.13;3604892;39;20071;-65
2023/08/31 10:59:52;;;;;;;4.10;1.63;;;;;;;23.33;45.46;100837.38;3603568;39;20050;-64
2023/08/31 11:02:35;;;;;;;4.30;1.73;;;;;;;23.07;45.17;100752.63;3600953;39;20132;-64
2023/08/31 11:05:21;;;;;;;4.88;1.80;;;;;;;23.71;45.41;100821.09;3603150;39;20100;-65
2023/08/31 11:07:49;;;;;;;3.58;2.03;;;;;;;23.72;45.21;100825.53;3603817;39;20055;-63
2023/08/31 11:10:26;;;;;;;2.50;1.63;;;;;;;23.34;46.12;100830.00;3605577;39;20059;-64
2023/08/31 11:12:55;;;;;;;4.55;1.50;;;;;;;22.96;45.95;100828.94;3602940;39;20397;-64
2023/08/31 11:15:25;;;;;;;6.90;1.90;;;;;;;22.41;46.46;100801.25;3606046;39;20051;-63
2023/08/31 11:17:53;;;;;;;5.22;2.03;;;;;;;22.22;48.65;100824.38;3602645;39;20611;-64
2023/08/31 11:20:28;;;;;;;2.67;1.98;;;;;;;21.95;48.48;100833.75;3602753;39;20057;-63
2023/08/31 11:22:54;;;;;;;7.78;2.05;;;;;;;21.76;49.92;100834.03;3605685;39;20031;-65
2023/08/31 11:25:23;;;;;;;2.03;1.40;;;;;;;21.67;51.20;100827.69;3601633;39;20062;-64